createdAt,value
2023-01-30T00:02:12.219Z,7.90
2023-01-30T00:05:07.190Z,9.00
2023-01-30T00:08:01.222Z,9.10
2023-01-30T00:10:55.280Z,8.00
2023-01-30T00:13:51.016Z,8.20
2023-01-30T00:16:28.528Z,8.40
2023-01-30T00:19:22.237Z,8.60
2023-01-30T00:22:15.922Z,8.60
2023-01-30T00:25:11.395Z,8.00
2023-01-30T00:28:05.975Z,8.30
2023-01-30T00:31:00.658Z,7.80
2023-01-30T00:33:54.464Z,8.70
2023-01-30T00:36:55.993Z,8.30
2023-01-30T00:40:00.736Z,8.20
2023-01-30T00:46:38.513Z,7.80
2023-01-30T00:49:32.786Z,8.20
2023-01-30T00:52:27.473Z,8.20
2023-01-30T00:55:21.406Z,8.40
2023-01-30T00:58:15.432Z,8.00
2023-01-30T01:01:09.345Z,8.60
2023-01-30T01:04:02.996Z,8.40
2023-01-30T01:06:56.705Z,7.60
2023-01-30T01:09:50.334Z,8.00
2023-01-30T01:12:24.106Z,8.00
2023-01-30T01:15:18.598Z,8.10
2023-01-30T01:18:12.542Z,8.00
2023-01-30T01:21:06.482Z,7.80
2023-01-30T01:23:43.053Z,7.70
2023-01-30T01:26:37.745Z,8.40
2023-01-30T01:29:34.427Z,8.10
2023-01-30T01:32:28.197Z,7.90
2023-01-30T01:35:22.398Z,7.50
2023-01-30T01:38:16.134Z,7.70
2023-01-30T01:41:11.273Z,7.40
2023-01-30T01:44:09.213Z,7.60
2023-01-30T01:47:03.054Z,7.50
2023-01-30T01:49:57.916Z,7.70
2023-01-30T01:52:54.969Z,7.80
2023-01-30T01:55:53.778Z,7.90
2023-01-30T01:58:53.687Z,7.90
2023-01-30T02:01:48.451Z,7.60
2023-01-30T02:05:02.765Z,7.50
2023-01-30T02:08:18.658Z,7.20
2023-01-30T02:11:19.216Z,7.00
2023-01-30T02:14:14.968Z,7.50
2023-01-30T02:17:08.747Z,7.60
2023-01-30T02:20:13.135Z,7.90
2023-01-30T02:23:55.182Z,7.00
2023-01-30T02:30:29.473Z,7.40
2023-01-30T02:33:33.682Z,6.80
2023-01-30T02:39:34.458Z,7.00
2023-01-30T02:42:35.783Z,6.50
2023-01-30T02:45:37.077Z,7.00
2023-01-30T02:48:41.128Z,6.80
2023-01-30T02:51:38.644Z,6.90
2023-01-30T02:54:32.226Z,6.30
2023-01-30T02:57:27.743Z,7.30
2023-01-30T03:00:29.559Z,6.70
2023-01-30T03:03:41.522Z,6.90
2023-01-30T03:07:03.979Z,6.80
2023-01-30T03:10:08.617Z,6.80
2023-01-30T03:13:12.150Z,6.80
2023-01-30T03:16:12.109Z,6.70
2023-01-30T03:19:10.630Z,6.60
2023-01-30T03:22:04.534Z,6.80
2023-01-30T03:24:58.354Z,6.70
2023-01-30T03:27:54.946Z,5.80
2023-01-30T03:30:48.868Z,6.00
2023-01-30T03:33:42.892Z,6.20
2023-01-30T03:36:36.890Z,6.60
2023-01-30T03:39:30.579Z,6.40
2023-01-30T03:42:24.499Z,6.60
2023-01-30T03:45:18.782Z,6.40
2023-01-30T03:48:12.730Z,6.20
2023-01-30T03:51:07.084Z,5.90
2023-01-30T03:54:00.835Z,6.30
2023-01-30T03:56:54.620Z,6.30
2023-01-30T03:59:48.366Z,6.00
2023-01-30T04:02:42.177Z,6.10
2023-01-30T04:05:36.167Z,5.40
2023-01-30T04:08:29.907Z,5.90
2023-01-30T04:11:23.685Z,5.10
2023-01-30T04:14:17.434Z,6.10
2023-01-30T04:17:11.090Z,5.90
2023-01-30T04:20:05.290Z,5.50
2023-01-30T04:23:00.117Z,5.70
2023-01-30T04:25:53.796Z,5.80
2023-01-30T04:28:47.481Z,5.80
2023-01-30T04:31:41.501Z,5.00
2023-01-30T04:34:35.202Z,5.60
2023-01-30T04:37:29.185Z,5.70
2023-01-30T04:40:23.231Z,5.40
2023-01-30T04:43:16.978Z,5.40
2023-01-30T04:46:10.687Z,5.60
2023-01-30T04:49:04.410Z,4.90
2023-01-30T04:51:58.003Z,5.30
2023-01-30T04:54:52.431Z,5.30
2023-01-30T04:57:46.271Z,5.40
2023-01-30T05:00:40.027Z,6.20
2023-01-30T05:03:33.792Z,4.90
2023-01-30T05:06:28.022Z,4.60
2023-01-30T05:09:21.979Z,5.20
2023-01-30T05:12:15.699Z,5.30
2023-01-30T05:15:11.547Z,5.10
2023-01-30T05:18:05.375Z,5.30
2023-01-30T05:21:08.743Z,4.90
2023-01-30T05:24:02.798Z,5.40
2023-01-30T05:26:56.503Z,5.40
2023-01-30T05:29:50.197Z,4.60
2023-01-30T05:32:43.878Z,5.50
2023-01-30T05:35:37.570Z,4.50
2023-01-30T05:38:16.498Z,4.90
2023-01-30T05:41:11.858Z,5.10
2023-01-30T05:44:05.624Z,4.80
2023-01-30T05:46:59.378Z,4.70
2023-01-30T05:49:53.031Z,4.90
2023-01-30T05:52:46.792Z,4.80
2023-01-30T05:55:40.535Z,4.70
2023-01-30T05:58:34.644Z,5.40
2023-01-30T06:01:30.461Z,5.10
2023-01-30T06:04:24.188Z,5.00
2023-01-30T06:07:18.192Z,5.40
2023-01-30T06:10:13.953Z,5.10
2023-01-30T06:13:07.814Z,4.80
2023-01-30T06:16:01.635Z,5.00
2023-01-30T06:18:55.336Z,4.80
2023-01-30T06:21:49.260Z,4.90
2023-01-30T06:24:43.014Z,4.90
2023-01-30T06:27:37.036Z,5.20
2023-01-30T06:30:31.061Z,4.80
2023-01-30T06:33:25.010Z,4.70
2023-01-30T06:36:18.777Z,5.10
2023-01-30T06:39:12.759Z,4.90
2023-01-30T06:42:07.195Z,4.70
2023-01-30T06:45:00.929Z,4.90
2023-01-30T06:47:56.601Z,5.10
2023-01-30T06:50:51.769Z,5.30
2023-01-30T06:53:45.683Z,5.00
2023-01-30T06:56:39.684Z,4.80
2023-01-30T06:59:33.366Z,5.00
2023-01-30T07:02:27.170Z,5.00
2023-01-30T07:05:21.207Z,5.10
2023-01-30T07:08:15.712Z,4.70
2023-01-30T07:11:10.440Z,5.00
2023-01-30T07:14:06.228Z,5.30
2023-01-30T07:17:00.442Z,5.10
2023-01-30T07:19:54.234Z,4.90
2023-01-30T07:22:53.573Z,5.30
2023-01-30T07:25:47.475Z,4.60
2023-01-30T07:28:41.297Z,4.60
2023-01-30T07:31:34.999Z,4.70
2023-01-30T07:34:29.065Z,5.10
2023-01-30T07:37:22.803Z,5.00
2023-01-30T07:40:18.480Z,5.20
2023-01-30T07:43:14.973Z,5.20
2023-01-30T07:46:08.853Z,5.20
2023-01-30T07:49:02.707Z,5.00
2023-01-30T07:51:41.358Z,5.40
2023-01-30T07:54:35.184Z,5.20
2023-01-30T07:57:29.255Z,4.80
2023-01-30T08:00:24.374Z,4.70
2023-01-30T08:03:19.467Z,5.00
2023-01-30T08:06:14.592Z,4.90
2023-01-30T08:09:09.049Z,5.30
2023-01-30T08:12:02.814Z,5.20
2023-01-30T08:14:56.528Z,5.50
2023-01-30T08:17:58.393Z,5.80
2023-01-30T08:20:52.286Z,5.60
2023-01-30T08:23:46.022Z,6.40
2023-01-30T08:26:39.823Z,5.80
2023-01-30T08:29:34.453Z,5.60
2023-01-30T08:32:28.158Z,5.70
2023-01-30T08:35:22.207Z,5.60
2023-01-30T08:38:16.526Z,5.90
2023-01-30T08:41:11.136Z,6.00
2023-01-30T08:44:04.959Z,9.00
2023-01-30T08:46:58.689Z,7.40
2023-01-30T08:49:53.033Z,7.10
2023-01-30T08:52:46.818Z,7.30
2023-01-30T08:55:40.933Z,6.10
2023-01-30T08:58:34.638Z,6.50
2023-01-30T09:01:28.593Z,7.00
2023-01-30T09:04:24.928Z,7.20
2023-01-30T09:07:19.169Z,11.00
2023-01-30T09:10:14.620Z,9.80
2023-01-30T09:13:11.462Z,9.60
2023-01-30T09:16:07.021Z,10.30
2023-01-30T09:19:00.814Z,10.40
2023-01-30T09:21:55.357Z,12.80
2023-01-30T09:24:49.129Z,11.00
2023-01-30T09:27:44.585Z,9.80
2023-01-30T09:30:38.626Z,9.20
2023-01-30T09:33:32.620Z,9.20
2023-01-30T09:36:26.637Z,8.40
2023-01-30T09:39:20.658Z,10.10
2023-01-30T09:42:38.071Z,13.10
2023-01-30T09:45:50.278Z,14.20
2023-01-30T09:48:57.966Z,12.10
2023-01-30T09:52:04.713Z,14.30
2023-01-30T09:55:03.718Z,20.90
2023-01-30T09:58:00.502Z,16.40
2023-01-30T10:01:03.838Z,17.70
2023-01-30T10:04:13.205Z,17.00
2023-01-30T10:07:24.931Z,12.60
2023-01-30T10:10:22.284Z,18.10
2023-01-30T10:13:34.659Z,13.70
2023-01-30T10:16:36.261Z,15.70
2023-01-30T10:19:51.052Z,14.60
2023-01-30T10:22:49.381Z,14.80
2023-01-30T10:25:50.306Z,15.00
2023-01-30T10:29:06.793Z,14.10
2023-01-30T10:32:11.568Z,15.80
2023-01-30T10:35:18.347Z,12.60
2023-01-30T10:38:22.117Z,14.80
2023-01-30T10:41:25.259Z,14.20
2023-01-30T10:44:20.093Z,13.10
2023-01-30T10:47:48.069Z,12.80
2023-01-30T10:51:00.961Z,13.30
2023-01-30T10:54:02.300Z,13.40
2023-01-30T10:57:04.781Z,13.90
2023-01-30T11:00:05.015Z,13.30
2023-01-30T11:03:10.934Z,13.00
2023-01-30T11:06:12.090Z,13.30
2023-01-30T11:09:05.844Z,11.90
2023-01-30T11:12:00.368Z,12.90
2023-01-30T11:15:04.082Z,13.20
2023-01-30T11:18:41.330Z,13.50
2023-01-30T11:21:48.892Z,12.90
2023-01-30T11:24:46.544Z,13.90
2023-01-30T11:27:43.235Z,12.70
2023-01-30T11:30:39.623Z,16.10
2023-01-30T11:33:40.864Z,19.40
2023-01-30T11:36:36.750Z,21.90
2023-01-30T11:39:34.702Z,26.80
2023-01-30T11:42:50.802Z,27.10
2023-01-30T11:45:49.668Z,24.00
2023-01-30T11:49:32.144Z,20.00
2023-01-30T11:52:12.409Z,18.00
2023-01-30T11:54:53.652Z,17.50
2023-01-30T11:57:53.848Z,17.10
2023-01-30T12:00:50.319Z,15.60
2023-01-30T12:03:54.739Z,16.20
2023-01-30T12:07:08.991Z,15.20
2023-01-30T12:10:02.825Z,15.10
2023-01-30T12:12:59.838Z,14.40
2023-01-30T12:16:03.635Z,14.60
2023-01-30T12:19:07.418Z,12.90
2023-01-30T12:22:15.224Z,14.10
2023-01-30T12:25:20.204Z,13.90
2023-01-30T12:28:25.754Z,13.00
2023-01-30T12:31:25.780Z,12.60
2023-01-30T12:34:20.877Z,12.30
2023-01-30T12:37:40.811Z,12.70
2023-01-30T12:41:12.065Z,12.20
2023-01-30T12:44:38.525Z,13.60
2023-01-30T12:48:18.058Z,12.50
2023-01-30T12:51:26.824Z,12.00
2023-01-30T12:54:37.995Z,11.70
2023-01-30T12:57:42.403Z,12.30
2023-01-30T13:00:55.876Z,11.60
2023-01-30T13:03:59.552Z,12.00
2023-01-30T13:07:15.914Z,11.90
2023-01-30T13:10:24.324Z,11.30
2023-01-30T13:13:30.990Z,11.50
2023-01-30T13:16:33.971Z,10.90
2023-01-30T13:19:41.253Z,11.30
2023-01-30T13:22:48.255Z,11.10
2023-01-30T13:25:48.399Z,11.20
2023-01-30T13:28:48.788Z,11.20
2023-01-30T13:32:06.500Z,9.70
2023-01-30T13:35:02.952Z,10.10
2023-01-30T13:37:58.431Z,9.60
2023-01-30T13:41:14.675Z,9.70
2023-01-30T13:44:22.528Z,9.90
2023-01-30T13:47:33.599Z,9.90
2023-01-30T13:50:42.833Z,9.10
2023-01-30T13:53:44.658Z,9.60
2023-01-30T13:56:45.969Z,9.40
2023-01-30T14:00:22.359Z,9.60
2023-01-30T14:03:37.986Z,10.40
2023-01-30T14:06:41.241Z,10.00
2023-01-30T14:09:35.397Z,9.90
2023-01-30T14:12:37.373Z,9.20
2023-01-30T14:15:32.105Z,9.40
2023-01-30T14:18:33.726Z,9.20
2023-01-30T14:21:28.826Z,9.20
2023-01-30T14:24:25.656Z,9.40
2023-01-30T14:27:32.076Z,9.00
2023-01-30T14:30:49.429Z,9.20
2023-01-30T14:33:54.377Z,10.20
2023-01-30T14:36:53.552Z,9.40
2023-01-30T14:40:29.637Z,8.90
2023-01-30T14:43:54.396Z,8.60
2023-01-30T14:46:57.925Z,9.30
2023-01-30T14:49:53.677Z,8.80
2023-01-30T14:52:50.723Z,8.80
2023-01-30T14:55:45.089Z,8.50
2023-01-30T14:58:39.930Z,8.30
2023-01-30T15:04:45.432Z,8.50
2023-01-30T15:07:46.688Z,8.50
2023-01-30T15:11:15.998Z,8.30
2023-01-30T15:14:18.798Z,8.20
2023-01-30T15:17:29.116Z,8.10
2023-01-30T15:20:39.311Z,8.30
2023-01-30T15:23:56.131Z,7.90
2023-01-30T15:27:06.986Z,7.70
2023-01-30T15:30:37.300Z,8.00
2023-01-30T15:33:32.529Z,8.00
2023-01-30T15:36:33.186Z,7.80
2023-01-30T15:39:29.724Z,7.80
2023-01-30T15:42:16.298Z,7.20
2023-01-30T15:45:20.224Z,7.60
2023-01-30T15:48:40.573Z,7.50
2023-01-30T15:51:36.073Z,7.90
2023-01-30T15:54:30.133Z,7.00
2023-01-30T15:57:30.847Z,7.10
2023-01-30T16:00:33.092Z,7.30
2023-01-30T16:03:31.784Z,7.40
2023-01-30T16:06:34.747Z,7.40
2023-01-30T16:09:30.017Z,7.20
2023-01-30T16:12:32.094Z,7.20
2023-01-30T16:15:35.166Z,7.60
2023-01-30T16:18:39.852Z,6.20
2023-01-30T16:21:37.799Z,7.10
2023-01-30T16:24:35.405Z,7.60
2023-01-30T16:27:33.810Z,7.10
2023-01-30T16:30:32.208Z,6.50
2023-01-30T16:33:26.843Z,7.40
2023-01-30T16:36:39.802Z,6.40
2023-01-30T16:39:36.676Z,6.80
2023-01-30T16:42:32.225Z,6.70
2023-01-30T16:46:22.481Z,6.70
2023-01-30T16:49:21.980Z,7.00
2023-01-30T16:52:29.377Z,6.20
2023-01-30T16:55:27.145Z,6.50
2023-01-30T16:58:21.318Z,6.10
2023-01-30T17:01:16.038Z,6.90
2023-01-30T17:04:21.845Z,6.80
2023-01-30T17:07:39.251Z,6.50
2023-01-30T17:10:59.471Z,6.30
2023-01-30T17:14:20.755Z,6.70
2023-01-30T17:17:19.039Z,7.00
2023-01-30T17:20:16.329Z,6.70
2023-01-30T17:23:20.568Z,6.90
2023-01-30T17:29:23.145Z,6.40
2023-01-30T17:32:20.695Z,6.80
2023-01-30T17:35:15.991Z,6.40
2023-01-30T17:38:11.968Z,6.50
2023-01-30T17:41:08.104Z,6.50
2023-01-30T17:44:02.236Z,7.40
2023-01-30T17:46:56.119Z,6.10
2023-01-30T17:49:50.300Z,7.50
2023-01-30T17:52:44.520Z,7.20
2023-01-30T17:55:39.566Z,6.30
2023-01-30T17:58:35.156Z,6.90
2023-01-30T18:01:29.208Z,6.70
2023-01-30T18:04:23.675Z,6.70
2023-01-30T18:07:18.040Z,6.10
2023-01-30T18:10:18.879Z,5.90
2023-01-30T18:13:13.228Z,6.70
2023-01-30T18:16:08.329Z,6.10
2023-01-30T18:19:05.514Z,6.20
2023-01-30T18:22:00.069Z,6.90
2023-01-30T18:24:54.053Z,5.80
2023-01-30T18:27:48.733Z,6.40
2023-01-30T18:30:43.305Z,6.70
2023-01-30T18:33:41.029Z,5.90
2023-01-30T18:39:31.900Z,6.10
2023-01-30T18:42:26.657Z,6.00
2023-01-30T18:45:06.701Z,6.10
2023-01-30T18:48:00.831Z,6.40
2023-01-30T18:50:54.670Z,6.10
2023-01-30T18:53:50.613Z,6.70
2023-01-30T18:56:44.447Z,5.90
2023-01-30T18:59:39.982Z,6.20
2023-01-30T19:02:34.047Z,6.30
2023-01-30T19:05:28.333Z,6.40
2023-01-30T19:08:23.313Z,5.70
2023-01-30T19:11:37.486Z,6.60
2023-01-30T19:14:31.391Z,5.90
2023-01-30T19:17:25.381Z,6.30
2023-01-30T19:20:22.334Z,7.50
2023-01-30T19:23:17.994Z,6.40
2023-01-30T19:26:12.346Z,6.40
2023-01-30T19:29:06.526Z,5.90
2023-01-30T19:32:01.585Z,6.30
2023-01-30T19:34:55.561Z,6.80
2023-01-30T19:37:49.438Z,5.90
2023-01-30T19:40:47.864Z,6.40
2023-01-30T19:43:43.158Z,5.80
2023-01-30T19:46:37.495Z,5.90
2023-01-30T19:49:33.505Z,5.60
2023-01-30T19:52:28.967Z,6.10
2023-01-30T19:55:23.463Z,5.90
2023-01-30T19:58:17.628Z,6.20
2023-01-30T20:01:14.306Z,6.40
2023-01-30T20:04:08.546Z,5.90
2023-01-30T20:07:02.694Z,6.80
2023-01-30T20:09:56.757Z,6.40
2023-01-30T20:12:50.843Z,6.70
2023-01-30T20:15:45.426Z,6.00
2023-01-30T20:18:40.476Z,6.20
2023-01-30T20:21:37.129Z,6.40
2023-01-30T20:24:31.677Z,6.40
2023-01-30T20:27:25.374Z,6.30
2023-01-30T20:30:20.629Z,6.20
2023-01-30T20:33:16.590Z,6.30
2023-01-30T20:36:15.853Z,6.10
2023-01-30T20:39:10.421Z,6.40
2023-01-30T20:42:04.939Z,6.00
2023-01-30T20:44:59.473Z,6.10
2023-01-30T20:47:53.666Z,6.10
2023-01-30T20:50:48.332Z,5.70
2023-01-30T20:53:51.687Z,6.00
2023-01-30T20:56:48.961Z,6.20
2023-01-30T20:59:45.226Z,6.00
2023-01-30T21:02:39.404Z,5.80
2023-01-30T21:05:34.102Z,5.70
2023-01-30T21:08:28.936Z,5.80
2023-01-30T21:11:24.117Z,5.60
2023-01-30T21:14:19.342Z,5.20
2023-01-30T21:17:13.338Z,5.20
2023-01-30T21:20:08.093Z,5.50
2023-01-30T21:23:01.900Z,5.60
2023-01-30T21:25:56.588Z,5.40
2023-01-30T21:28:51.340Z,5.60
2023-01-30T21:31:47.003Z,5.30
2023-01-30T21:34:41.530Z,4.90
2023-01-30T21:37:54.097Z,5.50
2023-01-30T21:41:12.576Z,5.30
2023-01-30T21:44:09.409Z,5.40
2023-01-30T21:47:03.650Z,5.00
2023-01-30T21:49:59.479Z,4.70
2023-01-30T21:52:54.132Z,5.00
2023-01-30T21:55:54.177Z,4.70
2023-01-30T21:58:47.909Z,4.90
2023-01-30T22:01:42.762Z,4.70
2023-01-30T22:04:38.840Z,4.60
2023-01-30T22:07:33.327Z,6.30
2023-01-30T22:10:27.159Z,6.50
2023-01-30T22:13:21.423Z,10.40
2023-01-30T22:16:17.774Z,12.80
2023-01-30T22:19:32.723Z,19.80
2023-01-30T22:22:27.893Z,17.10
2023-01-30T22:25:22.235Z,14.00
2023-01-30T22:28:16.303Z,14.90
2023-01-30T22:31:13.201Z,14.60
2023-01-30T22:34:07.433Z,14.30
2023-01-30T22:37:02.283Z,15.40
2023-01-30T22:39:56.296Z,14.90
2023-01-30T22:42:51.865Z,19.60
2023-01-30T22:45:45.799Z,18.90
2023-01-30T22:48:40.825Z,17.80
2023-01-30T22:51:37.243Z,18.30
2023-01-30T22:54:31.401Z,20.20
2023-01-30T22:57:25.212Z,16.40
2023-01-30T23:00:19.962Z,24.10
2023-01-30T23:03:13.814Z,20.30
2023-01-30T23:06:10.460Z,19.60
2023-01-30T23:09:06.210Z,19.00
2023-01-30T23:12:19.509Z,24.00
2023-01-30T23:14:56.210Z,21.00
2023-01-30T23:18:07.668Z,20.10
2023-01-30T23:21:02.471Z,19.50
2023-01-30T23:23:59.378Z,19.40
2023-01-30T23:26:54.448Z,20.20
2023-01-30T23:29:48.413Z,18.70
2023-01-30T23:32:42.394Z,18.40
2023-01-30T23:35:37.790Z,18.30
2023-01-30T23:38:32.335Z,18.60
2023-01-30T23:41:29.366Z,18.40
2023-01-30T23:44:23.976Z,18.00
2023-01-30T23:47:18.152Z,17.70
2023-01-30T23:50:14.564Z,17.10
2023-01-30T23:53:10.495Z,17.40
2023-01-30T23:56:07.952Z,16.20
2023-01-30T23:59:02.499Z,18.00
